Pagrindinis puslapis
METAR-TAF:

METAR-TAF

Oro uostai :

Meno Sala,

platuma: 54-05N, ilguma: 004-38W, Aukštis: 17 m

Dabartinis oras

Ataskaita buvo paskelbta 12 minutes, ne 14:20 UTC
Vėjas 23 kt iš Pietų/Pietvakarių
Temperatūra 8°C
Drėgmė 100%
Slėgis 1007 hPa
Matomumas: 4000 m
Su prošvaistėmis ne aukštis 600 ft
Apsiniaukę ne aukštis 2800 ft
lietus

METAR: EGNS 191420Z 20023KT 4000 RA BKN006 OVC028 08/08 Q1007 NOSIG

Laikas: 14:32 (14:32 UTC)

Prognozė

Ataskaita buvo paskelbta 32 minutes, ne 14:00 UTC
Prognozė galioja nuo 19 metu 15 UTC su 19 metu 22 UTC
Vėjas 22 kt iš Pietų/Pietvakarių su gūsio iki 36 kt
Matomumas: 8000 m
Išsisklaidę debesys ne aukštis 800 ft
Su prošvaistėmis ne aukštis 1000 ft
lietus
Laikinai
nuo 19 metu 15 UTC su 19 metu 22 UTC
Matomumas: 4000 m
Su prošvaistėmis ne aukštis 500 ft
lietus, dulksna

TAF: EGNS 191400Z 1915/1922 21022G36KT 8000 -RA SCT008 BKN010 TEMPO 1915/1922 4000 RADZ BKN005

Orai ataskaitas ir orų prognozės (METAR, TAF).

turimą stotys yra geltonos ir raudonos taškus žemėlapyje.

Perkelti pele per norėdami pamatyti stoties vardą.

Tada spustelėkite, norėdami matyti oro stebėjimo ir prognozės.

Norėdami pakeisti žemėlapį: spustelėkite ant žalios mygtukų su juodo kryžiaus žemyn,; žalią mygtuką su brūkšneliu, jei norite nutolinti; arba žalių rodyklių gretimoms žemėlapius.


METAR-TAF: